Tiree, United Kingdom
Current Conditions -  °F | °C
As of 10:20 PM on Monday 20 Oct 2014 (Local Time) from EGPU Reporting Station
Rain Showers Rain Showers  
Wind Chill: 55°   Ceiling: 1700
Heat Index: 55°   Visibility: 4mi
Dew Point: 54°   Wind: 29mph
Humidity: 94%   Direction: 190°S
Pressure: 29.26"   Gusts: NA
Location:  56.5°N, 6.88°W
Report Text: EGPU 202120Z AUTO 19025KT 7000 -SHRA BKN017/// 13/12 Q0991
Loading
Personal Weather Stations






























Interactive Weather Map
Tropical Storm Tracking
New forecast layout! Learn more

10-Day Weather Forecast

Advertisements
Track Severe Weather on mobile